Time;durP1;ratioP1;P1;durP2;ratioP2;P2;SDS_P1;SDS_P2;PMS_P1;PMS_P2;Temp;Humidity;BMP_temperature;BMP_pressure;BME280_temperature;BME280_humidity;BME280_pressure;Samples;Min_cycle;Max_cycle;Signal;HPM_P1;HPM_P2
2022/01/01 00:00:16;;;;;;;13.10;7.13;;;;;;;;;;5051283;28;20069;-83
2022/01/01 00:02:43;;;;;;;10.90;6.20;;;;;;;;;;5034469;28;20497;-83
2022/01/01 00:05:11;;;;;;;12.65;7.00;;;;;;;;;;5051679;28;20037;-83
2022/01/01 00:07:40;;;;;;;10.68;6.30;;;;;;;;;;5051627;28;20052;-83
2022/01/01 00:10:07;;;;;;;10.15;6.13;;;;;;;;;;5051567;28;20498;-83
2022/01/01 00:12:34;;;;;;;10.35;6.28;;;;;;;;;;5053839;28;20033;-83
2022/01/01 00:14:59;;;;;;;9.10;5.97;;;;;;;;;;5053997;28;20037;-83
2022/01/01 00:17:26;;;;;;;10.85;6.32;;;;;;;;;;5052160;28;20040;-83
2022/01/01 00:19:52;;;;;;;12.93;6.70;;;;;;;;;;5051494;28;20052;-83
2022/01/01 00:22:18;;;;;;;9.85;6.05;;;;;;;;;;5051592;28;20021;-83
2022/01/01 00:24:44;;;;;;;11.95;6.57;;;;;;;;;;5051029;28;20486;-83
2022/01/01 00:27:10;;;;;;;9.70;5.93;;;;;;;;;;5050337;28;20041;-83
2022/01/01 00:29:36;;;;;;;10.45;6.13;;;;;;;;;;5051065;28;20056;-83
2022/01/01 00:32:03;;;;;;;10.18;6.47;;;;;;;;;;5031932;28;20041;-82
2022/01/01 00:34:29;;;;;;;9.57;5.75;;;;;;;;;;5031650;28;20389;-82
2022/01/01 00:36:55;;;;;;;9.90;6.25;;;;;;;;;;5031684;28;20041;-82
2022/01/01 00:39:21;;;;;;;11.25;6.20;;;;;;;;;;5033105;28;20033;-82
2022/01/01 00:41:47;;;;;;;12.13;5.97;;;;;;;;;;5034006;28;20029;-83
2022/01/01 00:44:13;;;;;;;11.60;5.80;;;;;;;;;;5035160;28;20079;-82
2022/01/01 00:46:39;;;;;;;10.75;6.00;;;;;;;;;;5071250;28;20470;-82
2022/01/01 00:49:06;;;;;;;8.68;5.45;;;;;;;;;;5071308;28;20040;-82
2022/01/01 00:51:32;;;;;;;9.52;5.18;;;;;;;;;;5071269;28;20033;-82
2022/01/01 00:53:58;;;;;;;11.00;5.85;;;;;;;;;;5063171;28;20383;-83
2022/01/01 00:56:23;;;;;;;8.20;4.90;;;;;;;;;;5051016;28;20029;-82
2022/01/01 00:58:49;;;;;;;9.75;5.25;;;;;;;;;;5050851;28;20068;-82
2022/01/01 01:01:15;;;;;;;9.77;5.10;;;;;;;;;;5051429;28;20064;-82
2022/01/01 01:03:42;;;;;;;12.63;5.65;;;;;;;;;;5051282;28;20446;-83
2022/01/01 01:06:10;;;;;;;12.75;5.72;;;;;;;;;;5033831;28;20033;-81
2022/01/01 01:08:36;;;;;;;9.15;5.30;;;;;;;;;;5066732;28;20067;-82
2022/01/01 01:11:07;;;;;;;7.88;4.97;;;;;;;;;;5058421;28;20021;-82
2022/01/01 01:13:33;;;;;;;8.90;5.20;;;;;;;;;;5076590;28;20013;-82
2022/01/01 01:16:00;;;;;;;8.32;5.30;;;;;;;;;;5075979;28;20025;-82
2022/01/01 01:18:26;;;;;;;9.18;5.15;;;;;;;;;;5057613;28;20061;-82
2022/01/01 01:20:52;;;;;;;8.82;4.82;;;;;;;;;;5073689;28;20041;-82
2022/01/01 01:23:18;;;;;;;10.07;5.43;;;;;;;;;;5074161;28;20033;-82
2022/01/01 01:25:44;;;;;;;8.35;4.82;;;;;;;;;;5073596;28;20029;-81
2022/01/01 01:28:13;;;;;;;9.48;5.25;;;;;;;;;;5057832;28;20116;-82
2022/01/01 01:30:41;;;;;;;11.65;5.38;;;;;;;;;;5051128;28;20512;-82
2022/01/01 01:33:08;;;;;;;8.88;5.05;;;;;;;;;;5050562;28;20037;-82
2022/01/01 01:35:34;;;;;;;9.90;4.95;;;;;;;;;;5034028;28;20068;-82
2022/01/01 01:38:01;;;;;;;8.50;4.35;;;;;;;;;;5046156;22;20052;-82
2022/01/01 01:40:27;;;;;;;9.40;4.60;;;;;;;;;;5031791;28;20033;-83
2022/01/01 01:42:53;;;;;;;7.95;4.50;;;;;;;;;;5014466;28;20049;-82
2022/01/01 01:45:21;;;;;;;9.60;4.63;;;;;;;;;;5014725;28;20073;-82
2022/01/01 01:47:49;;;;;;;7.53;4.63;;;;;;;;;;5031211;28;20041;-82
2022/01/01 01:50:18;;;;;;;8.65;4.75;;;;;;;;;;5029884;28;20479;-82
2022/01/01 01:52:49;;;;;;;7.32;4.30;;;;;;;;;;5029350;28;20471;-82
2022/01/01 01:55:15;;;;;;;8.02;4.53;;;;;;;;;;5029556;28;20521;-82
2022/01/01 01:57:42;;;;;;;7.88;4.43;;;;;;;;;;5029412;28;20593;-82
2022/01/01 02:02:57;;;;;;;8.32;4.55;;;;;;;;;;5031041;28;20041;-82
2022/01/01 02:05:23;;;;;;;8.88;4.82;;;;;;;;;;5028786;28;20069;-83
2022/01/01 02:07:49;;;;;;;7.20;4.40;;;;;;;;;;5029100;28;20041;-82
2022/01/01 02:10:16;;;;;;;8.13;4.75;;;;;;;;;;5011693;28;20041;-82
2022/01/01 02:12:47;;;;;;;8.32;4.80;;;;;;;;;;5030071;28;20030;-82
2022/01/01 02:15:42;;;;;;;9.38;5.13;;;;;;;;;;5030859;28;20471;-82
2022/01/01 02:18:08;;;;;;;9.00;5.13;;;;;;;;;;5033062;28;20033;-82
2022/01/01 02:20:35;;;;;;;9.25;5.25;;;;;;;;;;5033833;28;20501;-82
2022/01/01 02:23:01;;;;;;;8.50;4.65;;;;;;;;;;5032502;28;20042;-82
2022/01/01 02:25:28;;;;;;;8.57;4.53;;;;;;;;;;5032840;28;20049;-82
2022/01/01 02:27:55;;;;;;;9.32;5.13;;;;;;;;;;5034126;28;20033;-81
2022/01/01 02:30:21;;;;;;;10.02;5.07;;;;;;;;;;5033889;28;20049;-82
2022/01/01 02:32:48;;;;;;;9.30;4.88;;;;;;;;;;5032419;28;20037;-82
2022/01/01 02:35:17;;;;;;;10.45;4.85;;;;;;;;;;5032404;28;20057;-82
2022/01/01 02:37:42;;;;;;;8.60;4.90;;;;;;;;;;5032125;28;20049;-82
2022/01/01 02:40:10;;;;;;;10.73;5.68;;;;;;;;;;5033204;28;20401;-82
2022/01/01 02:42:39;;;;;;;10.57;5.15;;;;;;;;;;5027701;28;20038;-82
2022/01/01 02:45:08;;;;;;;9.63;5.15;;;;;;;;;;5033468;28;20046;-82
2022/01/01 02:47:35;;;;;;;10.35;5.40;;;;;;;;;;5033312;28;20518;-82
2022/01/01 02:50:01;;;;;;;10.55;5.55;;;;;;;;;;5035361;28;20052;-82
2022/01/01 02:52:28;;;;;;;12.00;5.75;;;;;;;;;;5055721;28;20036;-82
2022/01/01 02:54:54;;;;;;;9.93;5.90;;;;;;;;;;5054517;28;20017;-82
2022/01/01 02:57:23;;;;;;;11.00;5.65;;;;;;;;;;5056056;28;20032;-82
2022/01/01 02:59:50;;;;;;;9.00;5.82;;;;;;;;;;5056480;28;20060;-82
2022/01/01 03:02:16;;;;;;;10.15;5.65;;;;;;;;;;5044562;28;20049;-82
2022/01/01 03:04:42;;;;;;;9.57;5.60;;;;;;;;;;5032444;28;20494;-82
2022/01/01 03:07:07;;;;;;;11.88;5.70;;;;;;;;;;5032724;28;20034;-82
2022/01/01 03:09:36;;;;;;;10.23;5.63;;;;;;;;;;5032583;28;20033;-82
2022/01/01 03:12:10;;;;;;;9.35;5.93;;;;;;;;;;5031400;28;20475;-82
2022/01/01 03:14:37;;;;;;;10.27;5.15;;;;;;;;;;5032105;28;20503;-82
2022/01/01 03:17:06;;;;;;;11.48;5.80;;;;;;;;;;5032558;28;20033;-82
2022/01/01 03:19:33;;;;;;;10.55;6.10;;;;;;;;;;5032656;28;20495;-82
2022/01/01 03:22:00;;;;;;;10.38;5.68;;;;;;;;;;5032844;28;20041;-82
2022/01/01 03:24:26;;;;;;;12.02;5.57;;;;;;;;;;5031740;28;20420;-82
2022/01/01 03:26:52;;;;;;;10.50;5.50;;;;;;;;;;5030875;28;20037;-82
2022/01/01 03:29:18;;;;;;;9.32;5.65;;;;;;;;;;5031596;28;20040;-82
2022/01/01 03:31:44;;;;;;;10.90;5.65;;;;;;;;;;5032328;28;20108;-82
2022/01/01 03:34:10;;;;;;;9.32;5.28;;;;;;;;;;5032232;28;20131;-82
2022/01/01 03:36:36;;;;;;;10.35;5.75;;;;;;;;;;5031848;28;20502;-82
2022/01/01 03:39:04;;;;;;;10.50;5.72;;;;;;;;;;5037235;28;20037;-81
2022/01/01 03:41:29;;;;;;;11.98;5.80;;;;;;;;;;5047450;28;20055;-82
2022/01/01 03:43:55;;;;;;;11.18;5.80;;;;;;;;;;5046316;28;20406;-82
2022/01/01 03:46:21;;;;;;;9.93;6.05;;;;;;;;;;5016616;28;20057;-82
2022/01/01 03:48:47;;;;;;;10.32;6.45;;;;;;;;;;5032230;28;20471;-82
2022/01/01 03:51:13;;;;;;;12.32;6.78;;;;;;;;;;5013530;28;20129;-82
2022/01/01 03:53:39;;;;;;;11.23;7.05;;;;;;;;;;5031432;28;20049;-82
2022/01/01 03:56:07;;;;;;;13.85;7.20;;;;;;;;;;5031228;28;20067;-82
2022/01/01 03:58:34;;;;;;;13.95;7.75;;;;;;;;;;5031241;28;20045;-82
2022/01/01 04:01:00;;;;;;;12.68;7.57;;;;;;;;;;5031304;28;20038;-82
2022/01/01 04:03:26;;;;;;;12.23;7.57;;;;;;;;;;5030776;28;20510;-82
2022/01/01 04:05:51;;;;;;;14.50;7.63;;;;;;;;;;5031072;28;20045;-82
2022/01/01 04:08:17;;;;;;;15.30;8.18;;;;;;;;;;5031335;28;20032;-82
2022/01/01 04:10:43;;;;;;;14.63;8.48;;;;;;;;;;5030505;28;20041;-82
2022/01/01 04:13:11;;;;;;;14.23;7.90;;;;;;;;;;5013133;28;20044;-81
2022/01/01 04:15:38;;;;;;;12.82;7.60;;;;;;;;;;5030774;28;20479;-82
2022/01/01 04:18:13;;;;;;;15.48;8.52;;;;;;;;;;5012845;28;20205;-82
2022/01/01 04:20:41;;;;;;;15.82;8.80;;;;;;;;;;5014131;28;20041;-82
2022/01/01 04:23:09;;;;;;;15.70;9.38;;;;;;;;;;5030460;28;20491;-82
2022/01/01 04:25:36;;;;;;;14.88;8.85;;;;;;;;;;5031173;28;20114;-82
2022/01/01 04:28:03;;;;;;;15.50;8.68;;;;;;;;;;5031173;28;20032;-82
2022/01/01 04:30:29;;;;;;;16.33;9.07;;;;;;;;;;5013398;28;20029;-82
2022/01/01 04:32:56;;;;;;;16.52;9.43;;;;;;;;;;5031172;28;20331;-82
2022/01/01 04:35:22;;;;;;;16.00;9.63;;;;;;;;;;5030988;28;20033;-82
2022/01/01 04:37:48;;;;;;;17.38;9.13;;;;;;;;;;5030519;28;20045;-82
2022/01/01 04:40:14;;;;;;;17.45;9.55;;;;;;;;;;5031052;28;20364;-82
2022/01/01 04:42:40;;;;;;;16.83;9.25;;;;;;;;;;5030949;28;20030;-82
2022/01/01 04:45:06;;;;;;;14.63;8.73;;;;;;;;;;5030859;28;20033;-83
2022/01/01 04:47:32;;;;;;;17.23;9.13;;;;;;;;;;5012998;28;20040;-82
2022/01/01 04:49:58;;;;;;;14.43;8.70;;;;;;;;;;5030027;28;20125;-82
2022/01/01 04:52:24;;;;;;;19.20;9.32;;;;;;;;;;5029421;28;20052;-82
2022/01/01 04:54:50;;;;;;;16.58;8.25;;;;;;;;;;5029002;28;20128;-82
2022/01/01 04:57:16;;;;;;;14.30;8.75;;;;;;;;;;5019576;28;20052;-82
2022/01/01 04:59:42;;;;;;;16.40;8.23;;;;;;;;;;5030258;28;20044;-82
2022/01/01 05:02:08;;;;;;;14.85;8.93;;;;;;;;;;5030642;28;20041;-82
2022/01/01 05:04:36;;;;;;;17.10;8.57;;;;;;;;;;5013480;28;20483;-82
2022/01/01 05:07:02;;;;;;;15.40;8.43;;;;;;;;;;5030823;28;20502;-83
2022/01/01 05:09:29;;;;;;;17.23;8.90;;;;;;;;;;5031027;28;20041;-82
2022/01/01 05:11:55;;;;;;;17.98;9.27;;;;;;;;;;5030868;28;20042;-82
2022/01/01 05:14:21;;;;;;;15.73;8.75;;;;;;;;;;5031234;28;20064;-82
2022/01/01 05:16:47;;;;;;;13.75;8.77;;;;;;;;;;5031207;28;20467;-82
2022/01/01 05:19:14;;;;;;;20.33;9.43;;;;;;;;;;5013209;28;20454;-82
2022/01/01 05:21:40;;;;;;;19.75;9.88;;;;;;;;;;5030842;28;20483;-82
2022/01/01 05:24:08;;;;;;;19.48;9.93;;;;;;;;;;5030664;28;20085;-82
2022/01/01 05:26:34;;;;;;;17.70;9.70;;;;;;;;;;5030982;28;20049;-82
2022/01/01 05:29:00;;;;;;;16.67;9.82;;;;;;;;;;5013181;28;20042;-82
2022/01/01 05:31:27;;;;;;;17.38;10.18;;;;;;;;;;5030479;28;20128;-82
2022/01/01 05:33:55;;;;;;;14.77;9.45;;;;;;;;;;5030503;28;20045;-82
2022/01/01 05:36:21;;;;;;;20.80;10.85;;;;;;;;;;5030300;28;20576;-82
2022/01/01 05:38:46;;;;;;;19.02;10.40;;;;;;;;;;5031883;28;20046;-82
2022/01/01 05:41:13;;;;;;;17.33;10.15;;;;;;;;;;5030679;28;20116;-82
2022/01/01 05:43:39;;;;;;;17.50;9.93;;;;;;;;;;5013041;28;20049;-82
2022/01/01 05:46:05;;;;;;;21.15;10.95;;;;;;;;;;5030088;28;20046;-83
2022/01/01 05:48:32;;;;;;;19.95;10.07;;;;;;;;;;5012989;28;20033;-81
2022/01/01 05:50:58;;;;;;;19.42;10.45;;;;;;;;;;5033771;28;20041;-81
2022/01/01 05:53:25;;;;;;;21.83;11.20;;;;;;;;;;5033846;28;20048;-82
2022/01/01 05:55:50;;;;;;;21.27;10.75;;;;;;;;;;5016612;28;20037;-81
2022/01/01 05:58:16;;;;;;;17.73;10.90;;;;;;;;;;5034250;28;20117;-81
2022/01/01 06:00:42;;;;;;;20.15;10.70;;;;;;;;;;5033715;28;20120;-82
2022/01/01 06:03:09;;;;;;;19.98;11.10;;;;;;;;;;5034024;28;20391;-82
2022/01/01 06:05:35;;;;;;;19.08;10.90;;;;;;;;;;5034440;28;20040;-82
2022/01/01 06:08:01;;;;;;;19.02;11.07;;;;;;;;;;5019280;28;20034;-83
2022/01/01 06:10:27;;;;;;;19.67;11.40;;;;;;;;;;5034247;28;20482;-84
2022/01/01 06:12:54;;;;;;;19.35;10.45;;;;;;;;;;5034243;28;20033;-83
2022/01/01 06:15:21;;;;;;;19.10;10.73;;;;;;;;;;5033702;28;20030;-83
2022/01/01 06:17:47;;;;;;;18.35;10.52;;;;;;;;;;5033670;28;20052;-83
2022/01/01 06:20:14;;;;;;;19.42;11.50;;;;;;;;;;5016546;28;20037;-83
2022/01/01 06:22:40;;;;;;;16.05;10.05;;;;;;;;;;5033977;28;20049;-83
2022/01/01 06:25:06;;;;;;;19.10;11.02;;;;;;;;;;5033180;28;20041;-83
2022/01/01 06:27:32;;;;;;;21.58;10.80;;;;;;;;;;5032954;28;20038;-83
2022/01/01 06:29:58;;;;;;;18.95;10.27;;;;;;;;;;5032943;28;20041;-83
2022/01/01 06:32:24;;;;;;;18.55;9.90;;;;;;;;;;5033738;28;20067;-83
2022/01/01 06:34:50;;;;;;;17.25;10.52;;;;;;;;;;5033514;28;20045;-83
2022/01/01 06:37:16;;;;;;;19.27;9.80;;;;;;;;;;5032976;28;20399;-83
2022/01/01 06:39:42;;;;;;;21.30;10.55;;;;;;;;;;5032820;28;20037;-83
2022/01/01 06:42:08;;;;;;;19.65;10.32;;;;;;;;;;5015322;28;20046;-83
2022/01/01 06:44:34;;;;;;;20.40;10.70;;;;;;;;;;5033222;28;20056;-83
2022/01/01 06:47:00;;;;;;;17.25;10.13;;;;;;;;;;5015984;28;20029;-83
2022/01/01 06:49:26;;;;;;;18.33;10.05;;;;;;;;;;5033612;28;20044;-83
2022/01/01 06:51:52;;;;;;;17.67;9.88;;;;;;;;;;5032185;28;20052;-83
2022/01/01 06:54:18;;;;;;;16.77;9.60;;;;;;;;;;5032845;28;20037;-83
2022/01/01 06:56:44;;;;;;;18.60;9.45;;;;;;;;;;5022294;28;20034;-83
2022/01/01 06:59:10;;;;;;;18.00;9.88;;;;;;;;;;5012930;28;20045;-82
2022/01/01 07:01:37;;;;;;;19.45;9.23;;;;;;;;;;5013753;28;20069;-84
2022/01/01 07:04:06;;;;;;;17.35;8.65;;;;;;;;;;5012913;28;20475;-82
2022/01/01 07:06:34;;;;;;;19.65;9.40;;;;;;;;;;5012975;28;20403;-82
2022/01/01 07:09:00;;;;;;;18.00;10.10;;;;;;;;;;5013165;28;20045;-82
2022/01/01 07:11:26;;;;;;;16.60;9.23;;;;;;;;;;5012895;28;20488;-82
2022/01/01 07:13:53;;;;;;;21.52;9.50;;;;;;;;;;4995415;28;20053;-82
2022/01/01 07:16:20;;;;;;;21.10;9.90;;;;;;;;;;5013021;28;20531;-82
2022/01/01 07:18:46;;;;;;;21.23;11.15;;;;;;;;;;5011601;28;20042;-82
2022/01/01 07:21:12;;;;;;;21.13;11.18;;;;;;;;;;5038015;28;20018;-82
2022/01/01 07:23:39;;;;;;;19.80;11.00;;;;;;;;;;5037540;28;20056;-82
2022/01/01 07:26:04;;;;;;;22.15;11.60;;;;;;;;;;5037908;28;20048;-82
2022/01/01 07:28:31;;;;;;;19.08;11.85;;;;;;;;;;5037064;28;20050;-82
2022/01/01 07:30:57;;;;;;;20.65;11.20;;;;;;;;;;5047021;28;20045;-82
2022/01/01 07:33:23;;;;;;;22.30;11.77;;;;;;;;;;5039431;28;20041;-84
2022/01/01 07:35:49;;;;;;;20.98;11.38;;;;;;;;;;5055841;28;20071;-84
2022/01/01 07:38:14;;;;;;;21.00;11.07;;;;;;;;;;5040080;28;20045;-84
2022/01/01 07:40:40;;;;;;;20.38;11.32;;;;;;;;;;5014134;28;20133;-82
2022/01/01 07:43:11;;;;;;;18.77;11.00;;;;;;;;;;5031974;28;20045;-84
2022/01/01 07:45:37;;;;;;;21.13;11.00;;;;;;;;;;5033225;28;20037;-84
2022/01/01 07:48:03;;;;;;;21.13;11.25;;;;;;;;;;5034103;28;20108;-83
2022/01/01 07:50:29;;;;;;;21.15;11.63;;;;;;;;;;5032755;28;20060;-83
2022/01/01 07:52:55;;;;;;;19.40;11.32;;;;;;;;;;5033767;28;20069;-83
2022/01/01 07:55:21;;;;;;;20.50;12.02;;;;;;;;;;5033587;28;20079;-83
2022/01/01 07:57:47;;;;;;;21.40;11.90;;;;;;;;;;5033673;28;20073;-84
2022/01/01 08:00:13;;;;;;;23.90;12.77;;;;;;;;;;5032942;28;20073;-83
2022/01/01 08:02:44;;;;;;;23.70;12.40;;;;;;;;;;5032709;28;20038;-83
2022/01/01 08:05:12;;;;;;;19.73;11.02;;;;;;;;;;5032335;28;20061;-84
2022/01/01 08:07:39;;;;;;;21.60;13.05;;;;;;;;;;5031389;28;20041;-83
2022/01/01 08:10:06;;;;;;;20.13;11.30;;;;;;;;;;5031859;28;20037;-83
2022/01/01 08:12:32;;;;;;;22.27;11.23;;;;;;;;;;5030921;28;20041;-83
2022/01/01 08:14:58;;;;;;;23.00;11.20;;;;;;;;;;5031238;28;20044;-83
2022/01/01 08:17:24;;;;;;;21.42;12.10;;;;;;;;;;5030964;28;20121;-83
2022/01/01 08:19:51;;;;;;;19.55;11.25;;;;;;;;;;5030795;28;20056;-84
2022/01/01 08:22:17;;;;;;;21.67;12.50;;;;;;;;;;5031211;28;20041;-83
2022/01/01 08:24:43;;;;;;;21.27;12.48;;;;;;;;;;5031460;28;20041;-83
2022/01/01 08:27:10;;;;;;;20.38;12.45;;;;;;;;;;5030872;28;20603;-83
2022/01/01 08:29:36;;;;;;;19.77;11.75;;;;;;;;;;5031258;28;20403;-83
2022/01/01 08:32:02;;;;;;;24.67;13.73;;;;;;;;;;5031104;28;20045;-83
2022/01/01 08:34:28;;;;;;;25.33;12.73;;;;;;;;;;5029585;28;20037;-83
2022/01/01 08:36:54;;;;;;;21.35;12.63;;;;;;;;;;5031781;28;20540;-83
2022/01/01 08:39:20;;;;;;;21.75;12.43;;;;;;;;;;5031581;28;20050;-83
2022/01/01 08:41:47;;;;;;;20.60;12.60;;;;;;;;;;5031614;28;20044;-83
2022/01/01 08:44:14;;;;;;;24.42;13.43;;;;;;;;;;5013750;28;20041;-83
2022/01/01 08:46:40;;;;;;;23.88;12.80;;;;;;;;;;5031129;28;20033;-83
2022/01/01 08:49:06;;;;;;;26.40;15.13;;;;;;;;;;5030776;28;20053;-83
2022/01/01 08:51:34;;;;;;;22.27;13.63;;;;;;;;;;5030596;28;20037;-83
2022/01/01 08:54:00;;;;;;;25.90;14.52;;;;;;;;;;5030960;28;20158;-82
2022/01/01 08:56:26;;;;;;;22.00;12.98;;;;;;;;;;5030359;28;20053;-82
2022/01/01 08:58:53;;;;;;;24.10;13.43;;;;;;;;;;5027922;28;20030;-82
2022/01/01 09:01:19;;;;;;;25.15;13.75;;;;;;;;;;5030345;28;20048;-81
2022/01/01 09:03:45;;;;;;;21.10;13.10;;;;;;;;;;5030361;28;20129;-82
2022/01/01 09:06:11;;;;;;;23.70;13.32;;;;;;;;;;5031023;28;20048;-82
2022/01/01 09:08:39;;;;;;;22.88;12.80;;;;;;;;;;5030522;28;20033;-82
2022/01/01 09:11:13;;;;;;;23.48;13.63;;;;;;;;;;5012706;28;20046;-82
2022/01/01 09:13:42;;;;;;;24.85;13.45;;;;;;;;;;5030523;28;20049;-83
2022/01/01 09:16:14;;;;;;;21.98;12.63;;;;;;;;;;5013890;28;20045;-82
2022/01/01 09:18:42;;;;;;;22.63;12.27;;;;;;;;;;5031005;28;20033;-81
2022/01/01 09:21:08;;;;;;;24.33;14.05;;;;;;;;;;5014359;28;20041;-83
2022/01/01 09:23:35;;;;;;;22.60;12.23;;;;;;;;;;5030681;28;20491;-84
2022/01/01 09:26:01;;;;;;;24.42;13.27;;;;;;;;;;5034725;28;20517;-84
2022/01/01 09:28:31;;;;;;;21.70;12.75;;;;;;;;;;5036132;28;20044;-84
2022/01/01 09:30:59;;;;;;;21.60;12.63;;;;;;;;;;5035776;28;20029;-81
2022/01/01 09:33:29;;;;;;;22.45;12.82;;;;;;;;;;5036249;28;20045;-84
2022/01/01 09:35:59;;;;;;;23.83;13.10;;;;;;;;;;5034479;28;20033;-82
2022/01/01 09:38:25;;;;;;;23.67;12.52;;;;;;;;;;5057347;23;20041;-82
2022/01/01 09:40:56;;;;;;;20.95;12.07;;;;;;;;;;5054220;28;20041;-82
2022/01/01 09:43:23;;;;;;;21.92;12.25;;;;;;;;;;5054045;28;20040;-82
2022/01/01 09:45:50;;;;;;;20.23;12.02;;;;;;;;;;5054753;28;20221;-84
2022/01/01 09:48:21;;;;;;;24.75;12.57;;;;;;;;;;5046602;28;20054;-82
2022/01/01 09:50:49;;;;;;;19.73;12.52;;;;;;;;;;5054618;28;20048;-82
2022/01/01 09:53:17;;;;;;;22.52;12.85;;;;;;;;;;5054997;28;20043;-84
2022/01/01 09:55:44;;;;;;;22.38;11.23;;;;;;;;;;5061667;28;20037;-82
2022/01/01 09:58:09;;;;;;;22.95;12.50;;;;;;;;;;5059948;28;20043;-82
2022/01/01 10:00:35;;;;;;;22.20;11.90;;;;;;;;;;5077655;28;20025;-82
2022/01/01 10:03:04;;;;;;;23.58;13.95;;;;;;;;;;5077320;28;20029;-82
2022/01/01 10:05:30;;;;;;;22.35;11.95;;;;;;;;;;5060047;28;20044;-82
2022/01/01 10:08:02;;;;;;;19.45;12.70;;;;;;;;;;5060790;28;20610;-81
2022/01/01 10:10:28;;;;;;;20.60;11.73;;;;;;;;;;5053838;28;20037;-82
2022/01/01 10:12:54;;;;;;;23.70;12.60;;;;;;;;;;5052330;28;20057;-82
2022/01/01 10:15:23;;;;;;;23.52;13.40;;;;;;;;;;5053997;28;20491;-82
2022/01/01 10:17:49;;;;;;;20.45;12.13;;;;;;;;;;5054122;28;20041;-82
2022/01/01 10:20:15;;;;;;;21.65;12.43;;;;;;;;;;5036201;28;20503;-82
2022/01/01 10:22:48;;;;;;;21.95;12.32;;;;;;;;;;5053188;28;20044;-81
2022/01/01 10:28:04;;;;;;;19.15;10.88;;;;;;;;;;5059005;28;20466;-82
2022/01/01 10:30:35;;;;;;;21.25;11.68;;;;;;;;;;5053864;28;20394;-81
2022/01/01 10:33:23;;;;;;;21.67;12.50;;;;;;;;;;5053864;28;20467;-82
2022/01/01 10:35:57;;;;;;;20.45;12.02;;;;;;;;;;5052811;28;20490;-82
2022/01/01 10:38:27;;;;;;;22.35;12.65;;;;;;;;;;5053141;28;20390;-84
2022/01/01 10:40:56;;;;;;;20.20;12.05;;;;;;;;;;5053366;28;20044;-84
2022/01/01 10:43:38;;;;;;;22.48;12.02;;;;;;;;;;5052992;28;20037;-82
2022/01/01 10:46:06;;;;;;;19.05;11.30;;;;;;;;;;5034829;28;20044;-82
2022/01/01 10:51:07;;;;;;;21.80;11.57;;;;;;;;;;5057000;28;20029;-84
2022/01/01 10:53:35;;;;;;;17.48;11.60;;;;;;;;;;5034901;28;20041;-84
2022/01/01 10:56:03;;;;;;;18.83;11.32;;;;;;;;;;5052888;28;20040;-84
2022/01/01 10:58:35;;;;;;;19.83;11.77;;;;;;;;;;5053102;28;20025;-84
2022/01/01 11:01:06;;;;;;;17.25;9.77;;;;;;;;;;5051839;28;20033;-84
2022/01/01 11:03:43;;;;;;;20.65;10.73;;;;;;;;;;5052496;28;20040;-84
2022/01/01 11:06:13;;;;;;;15.48;9.38;;;;;;;;;;5052055;28;20040;-82
2022/01/01 11:08:45;;;;;;;17.95;9.95;;;;;;;;;;5051975;28;20044;-81
2022/01/01 11:11:13;;;;;;;18.67;10.00;;;;;;;;;;5052404;28;20049;-84
2022/01/01 11:13:40;;;;;;;15.95;8.25;;;;;;;;;;5052315;28;20041;-81
2022/01/01 11:16:07;;;;;;;35.33;22.58;;;;;;;;;;5052988;28;20029;-81
2022/01/01 11:18:34;;;;;;;19.83;11.75;;;;;;;;;;5051769;28;20048;-81
2022/01/01 11:21:02;;;;;;;17.55;9.45;;;;;;;;;;5052528;28;20487;-84
2022/01/01 11:23:28;;;;;;;14.32;9.05;;;;;;;;;;5051457;28;20052;-81
2022/01/01 11:25:55;;;;;;;15.63;9.10;;;;;;;;;;5052740;28;20029;-81
2022/01/01 11:28:21;;;;;;;14.52;8.90;;;;;;;;;;5052086;28;20041;-81
2022/01/01 11:30:50;;;;;;;16.58;8.85;;;;;;;;;;5051905;28;20501;-81
2022/01/01 11:33:19;;;;;;;16.38;9.50;;;;;;;;;;5050091;28;20048;-83
2022/01/01 11:38:21;;;;;;;16.10;9.30;;;;;;;;;;5904981;22;20057;-81
2022/01/01 11:41:06;;;;;;;17.50;9.18;;;;;;;;;;5109637;23;20049;-81
2022/01/01 11:43:51;;;;;;;16.60;8.85;;;;;;;;;;5031665;28;20060;-81
2022/01/01 11:46:26;;;;;;;15.55;9.38;;;;;;;;;;5032104;28;20042;-82
2022/01/01 11:48:58;;;;;;;12.93;8.30;;;;;;;;;;5032112;28;20029;-81
2022/01/01 11:51:35;;;;;;;12.82;7.82;;;;;;;;;;5032688;28;20030;-84
2022/01/01 11:54:19;;;;;;;13.80;9.13;;;;;;;;;;5032242;28;20041;-82
2022/01/01 11:56:51;;;;;;;17.08;9.43;;;;;;;;;;5032078;28;20037;-81
2022/01/01 11:59:21;;;;;;;12.60;7.50;;;;;;;;;;5031945;28;20041;-81
2022/01/01 12:01:48;;;;;;;14.73;8.52;;;;;;;;;;5030765;28;20041;-82
2022/01/01 12:04:31;;;;;;;14.60;8.30;;;;;;;;;;5031788;28;20073;-84
2022/01/01 12:07:00;;;;;;;16.52;9.68;;;;;;;;;;5031385;28;20048;-82
2022/01/01 12:09:26;;;;;;;17.35;9.45;;;;;;;;;;5031792;28;20060;-84
2022/01/01 12:11:57;;;;;;;15.75;9.43;;;;;;;;;;5033607;28;20033;-82
2022/01/01 12:14:28;;;;;;;14.90;8.82;;;;;;;;;;5033829;28;20041;-83
2022/01/01 12:16:55;;;;;;;19.00;9.63;;;;;;;;;;5031878;28;20398;-83
2022/01/01 12:19:23;;;;;;;14.65;9.25;;;;;;;;;;5031849;28;20033;-83
2022/01/01 12:22:03;;;;;;;16.75;8.88;;;;;;;;;;5033917;28;20037;-83
2022/01/01 12:24:34;;;;;;;16.45;9.57;;;;;;;;;;5032933;28;20057;-82
2022/01/01 12:27:17;;;;;;;15.35;8.93;;;;;;;;;;5033547;28;20513;-83
2022/01/01 12:29:43;;;;;;;16.17;8.32;;;;;;;;;;5032332;28;20041;-83
2022/01/01 12:32:12;;;;;;;15.48;8.73;;;;;;;;;;5033855;28;20038;-83
2022/01/01 12:34:38;;;;;;;15.32;8.60;;;;;;;;;;5033709;28;20048;-82
2022/01/01 12:37:07;;;;;;;15.65;8.65;;;;;;;;;;5032783;28;20045;-82
2022/01/01 12:40:01;;;;;;;16.80;8.90;;;;;;;;;;5032316;28;20046;-83
2022/01/01 12:42:33;;;;;;;13.95;7.97;;;;;;;;;;5034287;28;20371;-83
2022/01/01 12:45:07;;;;;;;14.45;9.10;;;;;;;;;;5033705;28;20048;-83
2022/01/01 12:47:34;;;;;;;12.93;8.50;;;;;;;;;;5014380;28;20391;-84
2022/01/01 12:50:02;;;;;;;16.02;9.00;;;;;;;;;;5014528;28;20045;-82
2022/01/01 12:52:29;;;;;;;13.15;8.38;;;;;;;;;;5031918;28;20045;-83
2022/01/01 12:55:03;;;;;;;13.88;8.25;;;;;;;;;;5032936;28;20037;-83
2022/01/01 12:57:32;;;;;;;17.30;9.20;;;;;;;;;;5033501;28;20399;-82
2022/01/01 13:00:18;;;;;;;13.48;8.70;;;;;;;;;;5034546;28;20029;-83
2022/01/01 13:02:44;;;;;;;13.00;8.43;;;;;;;;;;5034185;28;20037;-84
2022/01/01 13:05:19;;;;;;;15.63;9.50;;;;;;;;;;5034148;28;20029;-84
2022/01/01 13:07:48;;;;;;;14.95;9.18;;;;;;;;;;5034171;28;20033;-82
2022/01/01 13:10:17;;;;;;;17.42;8.98;;;;;;;;;;5033594;28;20467;-83
2022/01/01 13:12:47;;;;;;;14.85;8.73;;;;;;;;;;5032520;28;20033;-84
2022/01/01 13:15:13;;;;;;;12.98;8.38;;;;;;;;;;5032388;28;20042;-83
2022/01/01 13:17:46;;;;;;;14.15;8.85;;;;;;;;;;5032061;28;20506;-83
2022/01/01 13:20:13;;;;;;;14.50;8.60;;;;;;;;;;5031372;28;20383;-83
2022/01/01 13:22:39;;;;;;;15.73;8.95;;;;;;;;;;5031659;28;20072;-83
2022/01/01 13:25:05;;;;;;;14.25;8.65;;;;;;;;;;5032956;28;20041;-82
2022/01/01 13:27:33;;;;;;;14.18;8.55;;;;;;;;;;5031752;28;20478;-82
2022/01/01 13:29:59;;;;;;;13.10;8.30;;;;;;;;;;5013154;28;20503;-83
2022/01/01 13:32:28;;;;;;;15.13;8.68;;;;;;;;;;5030021;28;20041;-83
2022/01/01 13:34:58;;;;;;;13.25;8.05;;;;;;;;;;5013150;28;20065;-83
2022/01/01 13:37:25;;;;;;;14.38;8.88;;;;;;;;;;5030995;28;20030;-83
2022/01/01 13:39:58;;;;;;;14.93;8.77;;;;;;;;;;5030257;28;20050;-82
2022/01/01 13:42:23;;;;;;;15.90;8.63;;;;;;;;;;5031024;28;20056;-82
2022/01/01 13:44:50;;;;;;;14.23;8.75;;;;;;;;;;5011203;28;20037;-82
2022/01/01 13:47:19;;;;;;;12.82;8.23;;;;;;;;;;5030434;28;20041;-82
2022/01/01 13:49:58;;;;;;;14.85;8.90;;;;;;;;;;5031791;28;20049;-82
2022/01/01 13:52:27;;;;;;;15.98;8.43;;;;;;;;;;5031255;28;20529;-82
2022/01/01 13:54:59;;;;;;;15.20;8.63;;;;;;;;;;5031158;28;20040;-82
2022/01/01 13:57:28;;;;;;;12.23;8.02;;;;;;;;;;5031311;28;20471;-82
2022/01/01 13:59:55;;;;;;;13.75;8.02;;;;;;;;;;5031755;28;20052;-82
2022/01/01 14:02:23;;;;;;;13.82;8.70;;;;;;;;;;5030148;28;20367;-82
2022/01/01 14:04:49;;;;;;;14.60;8.35;;;;;;;;;;5030128;28;20052;-82
2022/01/01 14:07:23;;;;;;;12.88;8.23;;;;;;;;;;5029757;28;20037;-82
2022/01/01 14:09:59;;;;;;;13.80;7.90;;;;;;;;;;5012706;28;20041;-82
2022/01/01 14:12:27;;;;;;;14.20;8.15;;;;;;;;;;5034396;28;20490;-83
2022/01/01 14:15:00;;;;;;;17.17;8.18;;;;;;;;;;5016798;28;20048;-82
2022/01/01 14:17:26;;;;;;;11.32;7.95;;;;;;;;;;5033876;28;20463;-82
2022/01/01 14:19:52;;;;;;;13.10;7.50;;;;;;;;;;5031354;28;20064;-82
2022/01/01 14:22:18;;;;;;;15.40;7.95;;;;;;;;;;5030610;28;20434;-85
2022/01/01 14:24:50;;;;;;;16.27;9.13;;;;;;;;;;5013288;28;20489;-84
2022/01/01 14:27:16;;;;;;;12.65;8.13;;;;;;;;;;5033723;28;20045;-87
2022/01/01 14:29:44;;;;;;;15.35;8.32;;;;;;;;;;5015481;28;20037;-84
2022/01/01 14:32:19;;;;;;;11.70;7.07;;;;;;;;;;5050465;28;20041;-83
2022/01/01 14:34:47;;;;;;;14.15;8.20;;;;;;;;;;5053908;28;20387;-83
2022/01/01 14:37:18;;;;;;;13.23;7.93;;;;;;;;;;5036276;28;20475;-85
2022/01/01 14:39:47;;;;;;;11.88;7.68;;;;;;;;;;5033819;28;20155;-84
2022/01/01 14:42:13;;;;;;;12.80;8.02;;;;;;;;;;5053933;28;20037;-84